METAR (acronimo di METeorological Air Report) è un messaggio meteo emesso nella maggior parte dei casi in ambito aeroportuale

UEEE - Yakutsk, Russia
Ultimo Aggiornamento: Giovedì 04 Giugno 2020 03:30 CEST
Sereno
Sereno
 Wind from Est
Vento: Est 4 km/h
Temperatura: 22°C
Punto di Rugiada: 0°C
Umidità: 23%
Barometro: 1008 hPa
Condizioni: Sereno
Visibilità: superiore a 10 km
2020/06/04 01:30 UEEE 040130Z 09001MPS CAVOK 22/M00 Q1008 R23L/09//60 NOSIG RMK QFE747
UHWW - Vladivostok, Russia
Ultimo Aggiornamento: Giovedì 04 Giugno 2020 03:30 CEST
Prevalentemente Nuvoloso
Prevalentemente Nuvoloso
 Wind from Sud-Sud-Ovest
Vento: Sud-Sud-Ovest 11 km/h
Temperatura: 17°C
Punto di Rugiada: 13°C
Umidità: 77%
Barometro: 999 hPa
Nuvole: Prevalentemente Nuvoloso
Visibilità: 10 km
Nuvole nel Dettaglio: Parzialmente Nuvoloso 305 m
Prevalentemente Nuvoloso 914 m
2020/06/04 01:30 UHWW 040130Z 20003MPS 180V260 9999 SCT010 BKN030CB 17/13 Q0999 R25L/0///70 NOSIG RMK QFE748
ZMUB - Ulan Bator, Mongolia
Ultimo Aggiornamento: Giovedì 04 Giugno 2020 03:30 CEST
Parzialmente Nuvoloso
Parzialmente Nuvoloso
 Wind from varies
Vento: variabile 4 km/h
Temperatura: 16°C
Punto di Rugiada: 3°C
Umidità: 42%
Barometro: 1009 hPa
Nuvole: Parzialmente Nuvoloso
Visibilità: 10 km
Nuvole nel Dettaglio: Parzialmente Nuvoloso 3048 m
2020/06/04 01:30 ZMUB 040130Z VRB01MPS 9999 SCT100 16/03 Q1009 NOSIG RMK QFE650.1 43 MOP
 
UTTT - Tashkent, Uzbekistan
Ultimo Aggiornamento: Giovedì 04 Giugno 2020 03:30 CEST
Sereno
Sereno
 Wind from Nord-Est
Vento: Nord-Est 15 km/h
Temperatura: 26°C
Punto di Rugiada: 12°C
Umidità: 42%
Barometro: 1007 hPa
Condizioni: Sereno
Visibilità: superiore a 10 km
2020/06/04 01:30 UTTT 040130Z 05008KT CAVOK 26/12 Q1007 R08R/CLRD70 NOSIG
OAKB - Kabul, Afghanistan
Ultimo Aggiornamento: Giovedì 04 Giugno 2020 02:50 CEST
Sereno
Sereno
 Wind from varies
Vento: variabile 6 km/h
Temperatura: 16°C
Punto di Rugiada: 9°C
Umidità: 63%
Barometro: 1015 hPa
Condizioni: Sereno
Visibilità: superiore a 10 km
2020/06/04 00:50 OAKB 040050Z VRB03KT CAVOK 16/09 Q1015 RMK A2999 BLU BLU
OPIS - Islamabad, Pakistan
Ultimo Aggiornamento: Giovedì 04 Giugno 2020 03:25 CEST
Parzialmente Nuvoloso
Parzialmente Nuvoloso
 Wind from calm
Vento: Calma
Temperatura: 23°C
Punto di Rugiada: 19°C
Umidità: 78%
Barometro: 1007 hPa
Nuvole: Parzialmente Nuvoloso
Visibilità: 6 km
2020/06/04 01:25 OPIS 040125Z 00000KT 6000 NSC 23/19 Q1007 NOSIG
 
ZBAA - Pechino, Cina
Ultimo Aggiornamento: Giovedì 04 Giugno 2020 03:30 CEST
Sereno
Sereno
 Wind from Nord-Est
Vento: Nord-Est 14 km/h
Temperatura: 26°C
Punto di Rugiada: 8°C
Umidità: 32%
Barometro: 1005 hPa
Condizioni: Sereno
Visibilità: superiore a 10 km
2020/06/04 01:30 ZBAA 040130Z 05004MPS 020V090 CAVOK 26/08 Q1005 NOSIG
VHHH - Pechino, Cina
Ultimo Aggiornamento: Giovedì 04 Giugno 2020 03:30 CEST
Qualche Nuvola
Qualche Nuvola
 Wind from Sud-Sud-Ovest
Vento: Sud-Sud-Ovest 19 km/h
Temperatura: 31°C
Heat Index: 37°C
Punto di Rugiada: 24°C
Umidità: 66%
Barometro: 1009 hPa
Nuvole: Qualche Nuvola
Visibilità: 10 km
Nuvole nel Dettaglio: Qualche Nuvola 762 m
2020/06/04 01:30 VHHH 040130Z 21010KT 180V250 9999 FEW025 31/24 Q1009 NOSIG
RKSI - Seul-Incheon, Corea del Sud
Ultimo Aggiornamento: Giovedì 04 Giugno 2020 03:30 CEST
Bruma, Prevalentemente Nuvoloso
Bruma, Prevalentemente Nuvoloso
 Wind from Sud-Ovest
Vento: Sud-Ovest 15 km/h
Temperatura: 19°C
Punto di Rugiada: 17°C
Umidità: 88%
Barometro: 1004 hPa
Condizioni: Bruma
Nuvole: Prevalentemente Nuvoloso
Visibilità: 4 km
Nuvole nel Dettaglio: Prevalentemente Nuvoloso 152 m
2020/06/04 01:30 RKSI 040130Z 22008KT 4000 BR BKN005 19/17 Q1004 NOSIG
 
RJTT - Tokyo-Haneda, Japan
Ultimo Aggiornamento: Giovedì 04 Giugno 2020 03:30 CEST
Prevalentemente Nuvoloso
Prevalentemente Nuvoloso
 Wind from Est-Nord-Est
Vento: Est-Nord-Est 9 km/h
Nuvole: Prevalentemente Nuvoloso
Visibilità: 8 km
Nuvole nel Dettaglio: Qualche Nuvola 457 m
Prevalentemente Nuvoloso 610 m
2020/06/04 01:30 RJTT 040130Z 06005KT 010V110 8000 FEW015 BKN020 BKN/// 24/20 Q1006 BECMG 08005KT
OIII - Tehran, Iran
Ultimo Aggiornamento: Giovedì 04 Giugno 2020 03:30 CEST
Sereno
Sereno
 Wind from Ovest-Nord-Ovest
Vento: Ovest-Nord-Ovest 15 km/h
Temperatura: 30°C
Punto di Rugiada: -6°C
Umidità: 9%
Barometro: 1013 hPa
Condizioni: Sereno
Visibilità: superiore a 10 km
2020/06/04 01:30 OIII 040130Z 30008KT CAVOK 30/M06 Q1013 A2992
ORBI - Baghdad, Iraq
Ultimo Aggiornamento: Giovedì 04 Giugno 2020 03:00 CEST
Sereno
Sereno
 Wind from Nord-Nord-Ovest
Vento: Nord-Nord-Ovest 9 km/h
Temperatura: 22°C
Punto di Rugiada: 8°C
Umidità: 41%
Barometro: 1008 hPa
Condizioni: Sereno
Visibilità: superiore a 10 km
2020/06/04 01:00 ORBI 040100Z 34005KT CAVOK 22/08 Q1008 NOSIG
 
OKBK - Kuwait City, Kuwait
Ultimo Aggiornamento: Giovedì 04 Giugno 2020 03:00 CEST
Sereno
Sereno
 Wind from Nord
Vento: Nord 22 km/h
Temperatura: 35°C
Punto di Rugiada: 9°C
Umidità: 20%
Barometro: 1004 hPa
Condizioni: Sereno
Visibilità: superiore a 10 km
2020/06/04 01:00 OKBK 040100Z 35012KT CAVOK 35/09 Q1004 NOSIG
OMDB - Dubai, United Arab Emirates
Ultimo Aggiornamento: Giovedì 04 Giugno 2020 03:00 CEST
Sereno
Sereno
 Wind from Sud-Sud-Ovest
Vento: Sud-Sud-Ovest 11 km/h
Temperatura: 31°C
Heat Index: 32°C
Punto di Rugiada: 18°C
Umidità: 46%
Barometro: 1000 hPa
Condizioni: Sereno
Visibilità: superiore a 10 km
2020/06/04 01:00 OMDB 040100Z 21006KT CAVOK 31/18 Q1000 NOSIG
VIDP - New Delhi, India
Ultimo Aggiornamento: Giovedì 04 Giugno 2020 03:30 CEST
Foschia, Prevalentemente Nuvoloso
Foschia, Prevalentemente Nuvoloso
 Wind from calm
Vento: Calma
Temperatura: 27°C
Heat Index: 29°C
Punto di Rugiada: 20°C
Umidità: 66%
Barometro: 1003 hPa
Condizioni: Foschia
Nuvole: Prevalentemente Nuvoloso
Visibilità: 2 km
Nuvole nel Dettaglio: Parzialmente Nuvoloso 1067 m
Prevalentemente Nuvoloso 3048 m
2020/06/04 01:30 VIDP 040130Z 00000KT 1500 R28/1600 R29/P2000 HZ SCT035 BKN100 27/20 Q1003 NOSIG
 
VVNB - Hanoi, Vietnam
Ultimo Aggiornamento: Giovedì 04 Giugno 2020 03:30 CEST
Prevalentemente Nuvoloso
Prevalentemente Nuvoloso
 Wind from Est
Vento: Est 11 km/h
Temperatura: 31°C
Heat Index: 39°C
Punto di Rugiada: 26°C
Umidità: 75%
Barometro: 1005 hPa
Nuvole: Prevalentemente Nuvoloso
Visibilità: 10 km
Nuvole nel Dettaglio: Prevalentemente Nuvoloso 427 m
2020/06/04 01:30 VVNB 040130Z 08006KT 9999 BKN014 31/26 Q1005 NOSIG
VVTS - Ho Chi Minh City, Vietnam
Ultimo Aggiornamento: Giovedì 04 Giugno 2020 03:30 CEST
Parzialmente Nuvoloso
Parzialmente Nuvoloso
 Wind from varies
Vento: variabile 2 km/h
Temperatura: 31°C
Heat Index: 39°C
Punto di Rugiada: 26°C
Umidità: 75%
Barometro: 1009 hPa
Nuvole: Parzialmente Nuvoloso
Visibilità: 10 km
Nuvole nel Dettaglio: Parzialmente Nuvoloso 610 m
2020/06/04 01:30 VVTS 040130Z VRB01KT 9999 SCT020 31/26 Q1009 NOSIG
RPLL - Manila, Philippines
Ultimo Aggiornamento: Giovedì 04 Giugno 2020 03:00 CEST
Parzialmente Nuvoloso
Parzialmente Nuvoloso
 Wind from varies
Vento: variabile 7 km/h
Temperatura: 33°C
Heat Index: 42°C
Punto di Rugiada: 26°C
Umidità: 67%
Barometro: 1011 hPa
Nuvole: Parzialmente Nuvoloso
Visibilità: 10 km
Nuvole nel Dettaglio: Parzialmente Nuvoloso 701 m
2020/06/04 01:00 RPLL 040100Z VRB04KT 9999 SCT023 33/26 Q1011 NOSIG RMK A2985
 
WMKK - Kuala Lumpur, Malaysia
Ultimo Aggiornamento: Giovedì 04 Giugno 2020 03:30 CEST
Qualche Nuvola
Qualche Nuvola
 Wind from Est-Sud-Est
Vento: Est-Sud-Est 11 km/h
Temperatura: 28°C
Heat Index: 32°C
Punto di Rugiada: 25°C
Umidità: 84%
Barometro: 1011 hPa
Nuvole: Qualche Nuvola
Visibilità: 10 km
Nuvole nel Dettaglio: Qualche Nuvola 518 m
2020/06/04 01:30 WMKK 040130Z 12006KT 060V160 9999 FEW017CB 28/25 Q1011 NOSIG
WSSS - Singapore, Singapore
Ultimo Aggiornamento: Giovedì 04 Giugno 2020 03:30 CEST
Prevalentemente Nuvoloso
Prevalentemente Nuvoloso
 Wind from varies
Vento: variabile 4 km/h
Temperatura: 29°C
Heat Index: 34°C
Punto di Rugiada: 25°C
Umidità: 79%
Barometro: 1011 hPa
Nuvole: Prevalentemente Nuvoloso
Visibilità: 10 km
Nuvole nel Dettaglio: Qualche Nuvola 610 m
Prevalentemente Nuvoloso 9144 m
2020/06/04 01:30 WSSS 040130Z VRB02KT 9999 FEW020CB BKN300 29/25 Q1011 NOSIG
WBSB - Brunei, Brunei
Ultimo Aggiornamento: Giovedì 04 Giugno 2020 03:30 CEST
Prevalentemente Nuvoloso
Prevalentemente Nuvoloso
 Wind from Ovest
Vento: Ovest 6 km/h
Temperatura: 30°C
Heat Index: 37°C
Punto di Rugiada: 26°C
Umidità: 79%
Barometro: 1011 hPa
Nuvole: Prevalentemente Nuvoloso
Visibilità: 10 km
Nuvole nel Dettaglio: Parzialmente Nuvoloso 457 m
Qualche Nuvola 488 m
Prevalentemente Nuvoloso 9144 m
2020/06/04 01:30 WBSB 040130Z 27003KT 9999 SCT015 FEW016CB BKN300 30/26 Q1011 NOSIG